sensor_id;sensor_type;location;lat;lon;timestamp;pressure;altitude;pressure_sealevel;temperature;humidity
17072;BME280;7731;50.720;6.912;2022-12-15T00:01:14;99105.53;;;-5.84;100.00
17072;BME280;7731;50.720;6.912;2022-12-15T00:03:59;99098.03;;;-5.98;100.00
17072;BME280;7731;50.720;6.912;2022-12-15T00:06:42;99112.19;;;-5.86;100.00
17072;BME280;7731;50.720;6.912;2022-12-15T00:09:24;99113.84;;;-5.88;100.00
17072;BME280;7731;50.720;6.912;2022-12-15T00:12:07;99117.22;;;-5.80;100.00
17072;BME280;7731;50.720;6.912;2022-12-15T00:14:49;99113.84;;;-5.90;100.00
17072;BME280;7731;50.720;6.912;2022-12-15T00:17:32;99114.72;;;-6.00;100.00
17072;BME280;7731;50.720;6.912;2022-12-15T00:20:17;99123.03;;;-6.03;100.00
17072;BME280;7731;50.720;6.912;2022-12-15T00:23:07;99120.56;;;-5.98;100.00
17072;BME280;7731;50.720;6.912;2022-12-15T00:25:50;99126.38;;;-5.99;100.00
17072;BME280;7731;50.720;6.912;2022-12-15T00:28:32;99133.84;;;-6.10;100.00
17072;BME280;7731;50.720;6.912;2022-12-15T00:31:15;99118.03;;;-6.14;100.00
17072;BME280;7731;50.720;6.912;2022-12-15T00:33:57;99139.72;;;-5.99;100.00
17072;BME280;7731;50.720;6.912;2022-12-15T00:36:43;99137.19;;;-5.96;100.00
17072;BME280;7731;50.720;6.912;2022-12-15T00:39:25;99141.34;;;-5.84;100.00
17072;BME280;7731;50.720;6.912;2022-12-15T00:41:55;99147.22;;;-5.80;100.00
17072;BME280;7731;50.720;6.912;2022-12-15T00:44:25;99152.22;;;-5.99;100.00
17072;BME280;7731;50.720;6.912;2022-12-15T00:46:55;99145.53;;;-6.06;100.00
17072;BME280;7731;50.720;6.912;2022-12-15T00:49:25;99146.34;;;-6.22;100.00
17072;BME280;7731;50.720;6.912;2022-12-15T00:52:12;99152.19;;;-6.23;100.00
17072;BME280;7731;50.720;6.912;2022-12-15T00:54:55;99153.00;;;-6.24;100.00
17072;BME280;7731;50.720;6.912;2022-12-15T00:57:39;99157.19;;;-6.17;100.00
17072;BME280;7731;50.720;6.912;2022-12-15T01:00:23;99149.63;;;-6.34;100.00
17072;BME280;7731;50.720;6.912;2022-12-15T01:03:11;99166.31;;;-6.24;100.00
17072;BME280;7731;50.720;6.912;2022-12-15T01:05:55;99167.97;;;-6.37;100.00
17072;BME280;7731;50.720;6.912;2022-12-15T01:08:40;99167.97;;;-6.37;100.00
17072;BME280;7731;50.720;6.912;2022-12-15T01:11:26;99155.47;;;-6.40;100.00
17072;BME280;7731;50.720;6.912;2022-12-15T01:14:09;99160.41;;;-6.55;100.00
17072;BME280;7731;50.720;6.912;2022-12-15T01:16:52;99170.34;;;-6.65;100.00
17072;BME280;7731;50.720;6.912;2022-12-15T01:19:34;99173.69;;;-6.62;100.00
17072;BME280;7731;50.720;6.912;2022-12-15T01:22:17;99174.53;;;-6.54;100.00
17072;BME280;7731;50.720;6.912;2022-12-15T01:24:50;99188.69;;;-6.56;100.00
17072;BME280;7731;50.720;6.912;2022-12-15T01:27:22;99198.63;;;-6.69;100.00
17072;BME280;7731;50.720;6.912;2022-12-15T01:29:53;99205.31;;;-6.65;100.00
17072;BME280;7731;50.720;6.912;2022-12-15T01:32:23;99212.81;;;-6.66;100.00
17072;BME280;7731;50.720;6.912;2022-12-15T01:34:53;99213.66;;;-6.62;100.00
17072;BME280;7731;50.720;6.912;2022-12-15T01:37:27;99215.34;;;-6.61;100.00
17072;BME280;7731;50.720;6.912;2022-12-15T01:39:59;99193.56;;;-6.81;100.00
17072;BME280;7731;50.720;6.912;2022-12-15T01:42:43;99210.16;;;-6.95;100.00
17072;BME280;7731;50.720;6.912;2022-12-15T01:45:53;99198.41;;;-7.06;100.00
17072;BME280;7731;50.720;6.912;2022-12-15T01:48:44;99195.25;;;-6.80;100.00
17072;BME280;7731;50.720;6.912;2022-12-15T01:51:24;99195.16;;;-6.98;100.00
17072;BME280;7731;50.720;6.912;2022-12-15T01:54:00;99195.94;;;-7.03;100.00
17072;BME280;7731;50.720;6.912;2022-12-15T01:56:38;99205.06;;;-7.11;100.00
17072;BME280;7731;50.720;6.912;2022-12-15T01:59:15;99204.25;;;-7.04;100.00
17072;BME280;7731;50.720;6.912;2022-12-15T02:01:47;99210.06;;;-7.08;100.00
17072;BME280;7731;50.720;6.912;2022-12-15T02:04:20;99214.25;;;-7.01;100.00
17072;BME280;7731;50.720;6.912;2022-12-15T02:06:51;99222.63;;;-6.97;100.00
17072;BME280;7731;50.720;6.912;2022-12-15T02:09:25;99220.13;;;-6.95;100.00
17072;BME280;7731;50.720;6.912;2022-12-15T02:12:08;99227.53;;;-7.11;100.00
17072;BME280;7731;50.720;6.912;2022-12-15T02:15:08;99232.34;;;-7.31;100.00
17072;BME280;7731;50.720;6.912;2022-12-15T02:17:50;99235.78;;;-7.16;100.00
17072;BME280;7731;50.720;6.912;2022-12-15T02:20:47;99229.09;;;-7.21;100.00
17072;BME280;7731;50.720;6.912;2022-12-15T02:24:18;99232.44;;;-7.19;100.00
17072;BME280;7731;50.720;6.912;2022-12-15T02:27:43;99229.84;;;-7.32;100.00
17072;BME280;7731;50.720;6.912;2022-12-15T02:30:37;99236.53;;;-7.28;100.00
17072;BME280;7731;50.720;6.912;2022-12-15T02:33:17;99248.09;;;-7.37;100.00
17072;BME280;7731;50.720;6.912;2022-12-15T02:35:57;99240.88;;;-7.04;100.00
17072;BME280;7731;50.720;6.912;2022-12-15T02:38:32;99244.91;;;-7.20;100.00
17072;BME280;7731;50.720;6.912;2022-12-15T02:41:27;99228.94;;;-7.41;100.00
17072;BME280;7731;50.720;6.912;2022-12-15T02:43:59;99208.09;;;-7.46;100.00
17072;BME280;7731;50.720;6.912;2022-12-15T02:46:44;99244.84;;;-7.29;100.00
17072;BME280;7731;50.720;6.912;2022-12-15T02:49:29;99248.28;;;-7.15;100.00
17072;BME280;7731;50.720;6.912;2022-12-15T02:52:42;99253.94;;;-7.34;100.00
17072;BME280;7731;50.720;6.912;2022-12-15T02:55:26;99250.63;;;-7.33;100.00
17072;BME280;7731;50.720;6.912;2022-12-15T02:58:07;99253.84;;;-7.44;100.00
17072;BME280;7731;50.720;6.912;2022-12-15T03:00:51;99262.94;;;-7.52;100.00
17072;BME280;7731;50.720;6.912;2022-12-15T03:03:22;99260.50;;;-7.46;100.00
17072;BME280;7731;50.720;6.912;2022-12-15T03:05:57;99258.00;;;-7.46;100.00
17072;BME280;7731;50.720;6.912;2022-12-15T03:08:28;99257.97;;;-7.50;100.00
17072;BME280;7731;50.720;6.912;2022-12-15T03:11:01;99255.50;;;-7.47;100.00
17072;BME280;7731;50.720;6.912;2022-12-15T03:13:31;99255.25;;;-7.74;100.00
17072;BME280;7731;50.720;6.912;2022-12-15T03:16:05;99258.53;;;-7.78;100.00
17072;BME280;7731;50.720;6.912;2022-12-15T03:18:37;99249.91;;;-7.20;100.00
17072;BME280;7731;50.720;6.912;2022-12-15T03:21:08;99260.00;;;-7.08;100.00
17072;BME280;7731;50.720;6.912;2022-12-15T03:23:38;99254.81;;;-7.32;100.00
17072;BME280;7731;50.720;6.912;2022-12-15T03:26:08;99256.31;;;-7.47;100.00
17072;BME280;7731;50.720;6.912;2022-12-15T03:28:38;99254.47;;;-7.66;100.00
17072;BME280;7731;50.720;6.912;2022-12-15T03:31:11;99257.06;;;-7.56;100.00
17072;BME280;7731;50.720;6.912;2022-12-15T03:33:41;99252.97;;;-7.52;100.00
17072;BME280;7731;50.720;6.912;2022-12-15T03:36:11;99252.84;;;-7.64;100.00
17072;BME280;7731;50.720;6.912;2022-12-15T03:38:41;99247.75;;;-7.74;100.00
17072;BME280;7731;50.720;6.912;2022-12-15T03:41:11;99255.41;;;-7.58;100.00
17072;BME280;7731;50.720;6.912;2022-12-15T03:43:44;99263.59;;;-7.70;100.00
17072;BME280;7731;50.720;6.912;2022-12-15T03:46:18;99265.34;;;-7.61;100.00
17072;BME280;7731;50.720;6.912;2022-12-15T03:48:49;99272.81;;;-7.61;100.00
17072;BME280;7731;50.720;6.912;2022-12-15T03:51:20;99275.13;;;-7.81;100.00
17072;BME280;7731;50.720;6.912;2022-12-15T03:53:51;99278.34;;;-7.88;100.00
17072;BME280;7731;50.720;6.912;2022-12-15T03:56:21;99275.00;;;-7.91;100.00
17072;BME280;7731;50.720;6.912;2022-12-15T03:58:51;99281.75;;;-7.80;100.00
17072;BME280;7731;50.720;6.912;2022-12-15T04:01:29;99287.84;;;-7.55;100.00
17072;BME280;7731;50.720;6.912;2022-12-15T04:04:00;99284.56;;;-7.49;100.00
17072;BME280;7731;50.720;6.912;2022-12-15T04:06:31;99289.59;;;-7.45;100.00
17072;BME280;7731;50.720;6.912;2022-12-15T04:09:04;99285.31;;;-7.58;100.00
17072;BME280;7731;50.720;6.912;2022-12-15T04:11:35;99279.41;;;-7.65;100.00
17072;BME280;7731;50.720;6.912;2022-12-15T04:14:05;99285.91;;;-7.81;100.00
17072;BME280;7731;50.720;6.912;2022-12-15T04:16:38;99285.03;;;-7.86;100.00
17072;BME280;7731;50.720;6.912;2022-12-15T04:19:08;99285.75;;;-7.95;100.00
17072;BME280;7731;50.720;6.912;2022-12-15T04:21:53;99279.06;;;-7.97;100.00
17072;BME280;7731;50.720;6.912;2022-12-15T04:24:25;99278.25;;;-7.96;100.00
17072;BME280;7731;50.720;6.912;2022-12-15T04:27:08;99283.91;;;-8.10;100.00
17072;BME280;7731;50.720;6.912;2022-12-15T04:29:50;99285.59;;;-8.09;100.00
17072;BME280;7731;50.720;6.912;2022-12-15T04:32:36;99285.47;;;-8.18;100.00
17072;BME280;7731;50.720;6.912;2022-12-15T04:35:18;99288.97;;;-8.03;100.00
17072;BME280;7731;50.720;6.912;2022-12-15T04:38:01;99285.19;;;-7.72;100.00
17072;BME280;7731;50.720;6.912;2022-12-15T04:40:44;99279.50;;;-6.50;100.00
17072;BME280;7731;50.720;6.912;2022-12-15T04:43:26;99274.59;;;-7.46;100.00
17072;BME280;7731;50.720;6.912;2022-12-15T04:46:09;99274.38;;;-7.69;100.00
17072;BME280;7731;50.720;6.912;2022-12-15T04:48:54;99281.72;;;-7.82;100.00
17072;BME280;7731;50.720;6.912;2022-12-15T04:51:37;99281.00;;;-7.75;100.00
17072;BME280;7731;50.720;6.912;2022-12-15T04:54:20;99276.72;;;-7.85;100.00
17072;BME280;7731;50.720;6.912;2022-12-15T04:57:02;99293.91;;;-8.07;100.00
17072;BME280;7731;50.720;6.912;2022-12-15T04:59:45;99309.75;;;-8.04;100.00
17072;BME280;7731;50.720;6.912;2022-12-15T05:02:27;99300.56;;;-8.09;100.00
17072;BME280;7731;50.720;6.912;2022-12-15T05:05:13;99302.31;;;-8.01;100.00
17072;BME280;7731;50.720;6.912;2022-12-15T05:07:57;99303.88;;;-8.08;100.00
17072;BME280;7731;50.720;6.912;2022-12-15T05:10:40;99315.50;;;-8.09;100.00
17072;BME280;7731;50.720;6.912;2022-12-15T05:13:25;99314.75;;;-8.03;100.00
17072;BME280;7731;50.720;6.912;2022-12-15T05:16:07;99329.63;;;-8.09;100.00
17072;BME280;7731;50.720;6.912;2022-12-15T05:18:50;99341.16;;;-8.16;100.00
17072;BME280;7731;50.720;6.912;2022-12-15T05:21:35;99338.03;;;-8.01;100.00
17072;BME280;7731;50.720;6.912;2022-12-15T05:24:17;99336.47;;;-7.91;100.00
17072;BME280;7731;50.720;6.912;2022-12-15T05:27:00;99337.91;;;-8.10;100.00
17072;BME280;7731;50.720;6.912;2022-12-15T05:29:43;99333.25;;;-7.82;100.00
17072;BME280;7731;50.720;6.912;2022-12-15T05:32:25;99339.25;;;-7.66;100.00
17072;BME280;7731;50.720;6.912;2022-12-15T05:34:55;99338.31;;;-7.76;100.00
17072;BME280;7731;50.720;6.912;2022-12-15T05:37:29;99335.53;;;-8.01;100.00
17072;BME280;7731;50.720;6.912;2022-12-15T05:39:59;99337.72;;;-8.24;100.00
17072;BME280;7731;50.720;6.912;2022-12-15T05:42:29;99339.53;;;-8.14;100.00
17072;BME280;7731;50.720;6.912;2022-12-15T05:45:00;99337.84;;;-8.15;100.00
17072;BME280;7731;50.720;6.912;2022-12-15T05:47:31;99342.84;;;-8.15;100.00
17072;BME280;7731;50.720;6.912;2022-12-15T05:50:02;99348.72;;;-8.10;100.00
17072;BME280;7731;50.720;6.912;2022-12-15T05:52:35;99343.88;;;-7.97;100.00
17072;BME280;7731;50.720;6.912;2022-12-15T05:55:06;99356.31;;;-8.00;100.00
17072;BME280;7731;50.720;6.912;2022-12-15T05:57:36;99344.69;;;-8.00;100.00
17072;BME280;7731;50.720;6.912;2022-12-15T06:00:08;99345.56;;;-7.96;100.00
17072;BME280;7731;50.720;6.912;2022-12-15T06:02:39;99346.84;;;-8.26;100.00
17072;BME280;7731;50.720;6.912;2022-12-15T06:05:09;99340.63;;;-7.93;100.00
17072;BME280;7731;50.720;6.912;2022-12-15T06:07:41;99357.28;;;-7.89;100.00
17072;BME280;7731;50.720;6.912;2022-12-15T06:10:12;99355.69;;;-7.84;100.00
17072;BME280;7731;50.720;6.912;2022-12-15T06:12:42;99358.44;;;-7.61;100.00
17072;BME280;7731;50.720;6.912;2022-12-15T06:15:13;99353.47;;;-7.59;100.00
17072;BME280;7731;50.720;6.912;2022-12-15T06:17:45;99354.19;;;-7.69;100.00
17072;BME280;7731;50.720;6.912;2022-12-15T06:20:16;99352.38;;;-7.83;100.00
17072;BME280;7731;50.720;6.912;2022-12-15T06:22:48;99365.06;;;-7.66;100.00
17072;BME280;7731;50.720;6.912;2022-12-15T06:25:19;99366.59;;;-7.76;100.00
17072;BME280;7731;50.720;6.912;2022-12-15T06:27:49;99362.69;;;-7.55;100.00
17072;BME280;7731;50.720;6.912;2022-12-15T06:30:26;99365.75;;;-7.76;100.00
17072;BME280;7731;50.720;6.912;2022-12-15T06:32:56;99369.06;;;-7.76;100.00
17072;BME280;7731;50.720;6.912;2022-12-15T06:35:26;99358.69;;;-7.39;100.00
17072;BME280;7731;50.720;6.912;2022-12-15T06:38:01;99370.88;;;-7.65;100.00
17072;BME280;7731;50.720;6.912;2022-12-15T06:40:31;99372.63;;;-7.58;100.00
17072;BME280;7731;50.720;6.912;2022-12-15T06:43:04;99379.41;;;-7.45;100.00
17072;BME280;7731;50.720;6.912;2022-12-15T06:45:37;99361.66;;;-7.69;100.00
17072;BME280;7731;50.720;6.912;2022-12-15T06:48:07;99361.31;;;-7.25;100.00
17072;BME280;7731;50.720;6.912;2022-12-15T06:50:37;99362.22;;;-7.22;100.00
17072;BME280;7731;50.720;6.912;2022-12-15T06:53:10;99370.50;;;-7.23;99.77
17072;BME280;7731;50.720;6.912;2022-12-15T06:55:41;99368.13;;;-7.12;99.70
17072;BME280;7731;50.720;6.912;2022-12-15T06:58:13;99371.09;;;-7.44;99.42
17072;BME280;7731;50.720;6.912;2022-12-15T07:00:45;99380.91;;;-7.59;100.00
17072;BME280;7731;50.720;6.912;2022-12-15T07:03:18;99375.16;;;-7.55;100.00
17072;BME280;7731;50.720;6.912;2022-12-15T07:06:02;99370.94;;;-7.59;100.00
17072;BME280;7731;50.720;6.912;2022-12-15T07:08:36;99380.91;;;-7.59;100.00
17072;BME280;7731;50.720;6.912;2022-12-15T07:11:10;99377.63;;;-7.58;100.00
17072;BME280;7731;50.720;6.912;2022-12-15T07:13:41;99375.91;;;-7.62;100.00
17072;BME280;7731;50.720;6.912;2022-12-15T07:16:11;99370.91;;;-7.62;100.00
17072;BME280;7731;50.720;6.912;2022-12-15T07:18:44;99375.34;;;-7.37;100.00
17072;BME280;7731;50.720;6.912;2022-12-15T07:21:14;99368.06;;;-7.16;100.00
17072;BME280;7731;50.720;6.912;2022-12-15T07:23:47;99368.00;;;-7.24;98.20
17072;BME280;7731;50.720;6.912;2022-12-15T07:26:23;99377.63;;;-7.58;98.67
17072;BME280;7731;50.720;6.912;2022-12-15T07:28:53;99379.13;;;-7.69;100.00
17072;BME280;7731;50.720;6.912;2022-12-15T07:31:24;99382.84;;;-7.37;100.00
17072;BME280;7731;50.720;6.912;2022-12-15T07:33:56;99381.78;;;-7.56;100.00
17072;BME280;7731;50.720;6.912;2022-12-15T07:36:26;99381.66;;;-7.66;100.00
17072;BME280;7731;50.720;6.912;2022-12-15T07:39:05;99392.88;;;-7.30;100.00
17072;BME280;7731;50.720;6.912;2022-12-15T07:41:37;99395.22;;;-7.46;100.00
17072;BME280;7731;50.720;6.912;2022-12-15T07:44:07;99399.97;;;-7.64;100.00
17072;BME280;7731;50.720;6.912;2022-12-15T07:46:40;99399.25;;;-7.56;100.00
17072;BME280;7731;50.720;6.912;2022-12-15T07:49:14;99401.00;;;-7.47;100.00
17072;BME280;7731;50.720;6.912;2022-12-15T07:51:45;99409.69;;;-7.15;100.00
17072;BME280;7731;50.720;6.912;2022-12-15T07:54:17;99415.06;;;-6.77;98.86
17072;BME280;7731;50.720;6.912;2022-12-15T07:56:48;99417.81;;;-6.46;95.15
17072;BME280;7731;50.720;6.912;2022-12-15T07:59:18;99413.19;;;-6.96;96.38
17072;BME280;7731;50.720;6.912;2022-12-15T08:01:49;99413.19;;;-6.96;97.10
17072;BME280;7731;50.720;6.912;2022-12-15T08:04:20;99414.94;;;-6.91;96.64
17072;BME280;7731;50.720;6.912;2022-12-15T08:06:52;99417.53;;;-6.80;97.23
17072;BME280;7731;50.720;6.912;2022-12-15T08:09:25;99421.38;;;-7.10;97.04
17072;BME280;7731;50.720;6.912;2022-12-15T08:11:55;99421.59;;;-6.88;98.25
17072;BME280;7731;50.720;6.912;2022-12-15T08:14:25;99409.88;;;-6.95;97.28
17072;BME280;7731;50.720;6.912;2022-12-15T08:16:56;99410.38;;;-6.38;98.02
17072;BME280;7731;50.720;6.912;2022-12-15T08:19:26;99411.97;;;-6.45;96.35
17072;BME280;7731;50.720;6.912;2022-12-15T08:21:56;99412.97;;;-6.24;97.20
17072;BME280;7731;50.720;6.912;2022-12-15T08:24:29;99416.47;;;-5.88;95.48
17072;BME280;7731;50.720;6.912;2022-12-15T08:26:59;99422.31;;;-5.93;93.36
17072;BME280;7731;50.720;6.912;2022-12-15T08:29:29;99418.94;;;-5.95;93.62
17072;BME280;7731;50.720;6.912;2022-12-15T08:32:18;99419.03;;;-5.79;94.26
17072;BME280;7731;50.720;6.912;2022-12-15T08:34:49;99417.06;;;-6.33;94.99
17072;BME280;7731;50.720;6.912;2022-12-15T08:37:19;99427.16;;;-6.23;97.67
17072;BME280;7731;50.720;6.912;2022-12-15T08:39:52;99426.47;;;-5.90;95.36
17072;BME280;7731;50.720;6.912;2022-12-15T08:42:22;99429.09;;;-5.64;96.72
17072;BME280;7731;50.720;6.912;2022-12-15T08:44:52;99435.06;;;-5.42;93.82
17072;BME280;7731;50.720;6.912;2022-12-15T08:47:22;99440.84;;;-5.52;93.85
17072;BME280;7731;50.720;6.912;2022-12-15T08:49:52;99434.25;;;-5.33;93.37
17072;BME280;7731;50.720;6.912;2022-12-15T08:52:25;99439.34;;;-5.14;93.36
17072;BME280;7731;50.720;6.912;2022-12-15T08:54:58;99449.31;;;-5.24;92.99
17072;BME280;7731;50.720;6.912;2022-12-15T08:57:28;99441.91;;;-4.88;93.21
17072;BME280;7731;50.720;6.912;2022-12-15T09:00:01;99451.13;;;-4.64;88.80
17072;BME280;7731;50.720;6.912;2022-12-15T09:02:33;99443.63;;;-4.21;88.30
17072;BME280;7731;50.720;6.912;2022-12-15T09:05:08;99461.16;;;-4.52;88.20
17072;BME280;7731;50.720;6.912;2022-12-15T09:07:39;99459.50;;;-4.03;89.40
17072;BME280;7731;50.720;6.912;2022-12-15T09:10:11;99466.16;;;-4.39;88.70
17072;BME280;7731;50.720;6.912;2022-12-15T09:12:42;99454.47;;;-2.24;88.49
17072;BME280;7731;50.720;6.912;2022-12-15T09:15:14;99450.50;;;-0.32;77.27
17072;BME280;7731;50.720;6.912;2022-12-15T09:17:45;99458.88;;;1.06;63.51
17072;BME280;7731;50.720;6.912;2022-12-15T09:20:15;99462.56;;;0.47;61.68
17072;BME280;7731;50.720;6.912;2022-12-15T09:22:46;99452.03;;;0.69;58.17
17072;BME280;7731;50.720;6.912;2022-12-15T09:25:20;99455.66;;;0.98;57.12
17072;BME280;7731;50.720;6.912;2022-12-15T09:27:50;99454.41;;;1.17;57.59
17072;BME280;7731;50.720;6.912;2022-12-15T09:30:28;99440.63;;;1.67;56.15
17072;BME280;7731;50.720;6.912;2022-12-15T09:32:58;99458.66;;;1.17;56.00
17072;BME280;7731;50.720;6.912;2022-12-15T09:35:28;99455.84;;;0.90;58.47
17072;BME280;7731;50.720;6.912;2022-12-15T09:37:58;99449.31;;;1.56;60.21
17072;BME280;7731;50.720;6.912;2022-12-15T09:40:31;99464.75;;;1.08;59.27
17072;BME280;7731;50.720;6.912;2022-12-15T09:43:02;99466.97;;;2.90;54.99
17072;BME280;7731;50.720;6.912;2022-12-15T09:46:02;99457.56;;;3.50;50.87
17072;BME280;7731;50.720;6.912;2022-12-15T09:48:41;99469.97;;;2.43;52.75
17072;BME280;7731;50.720;6.912;2022-12-15T09:51:16;99475.56;;;2.54;52.75
17072;BME280;7731;50.720;6.912;2022-12-15T09:53:54;99468.47;;;2.01;54.97
17072;BME280;7731;50.720;6.912;2022-12-15T09:56:40;99482.63;;;1.75;56.40
17072;BME280;7731;50.720;6.912;2022-12-15T09:59:29;99479.09;;;2.80;54.74
17072;BME280;7731;50.720;6.912;2022-12-15T10:02:28;99495.00;;;0.69;58.94
17072;BME280;7731;50.720;6.912;2022-12-15T10:05:14;99481.06;;;3.83;53.41
17072;BME280;7731;50.720;6.912;2022-12-15T10:07:47;99477.88;;;4.03;47.45
17072;BME280;7731;50.720;6.912;2022-12-15T10:10:28;99503.03;;;0.46;61.74
17072;BME280;7731;50.720;6.912;2022-12-15T10:13:09;99485.13;;;4.14;51.88
17072;BME280;7731;50.720;6.912;2022-12-15T10:15:50;99481.31;;;3.75;49.60
17072;BME280;7731;50.720;6.912;2022-12-15T10:18:25;99495.91;;;1.85;57.33
17072;BME280;7731;50.720;6.912;2022-12-15T10:20:59;99500.88;;;0.71;56.80
17072;BME280;7731;50.720;6.912;2022-12-15T10:23:35;99496.81;;;1.08;61.27
17072;BME280;7731;50.720;6.912;2022-12-15T10:26:19;99480.75;;;4.18;52.15
17072;BME280;7731;50.720;6.912;2022-12-15T10:29:21;99475.34;;;3.77;49.62
17072;BME280;7731;50.720;6.912;2022-12-15T10:31:58;99475.44;;;2.89;53.64
17072;BME280;7731;50.720;6.912;2022-12-15T10:34:35;99476.78;;;2.72;55.42
17072;BME280;7731;50.720;6.912;2022-12-15T10:37:12;99484.03;;;1.14;61.69
17072;BME280;7731;50.720;6.912;2022-12-15T10:39:47;99486.84;;;1.39;61.96
17072;BME280;7731;50.720;6.912;2022-12-15T10:42:21;99479.19;;;3.35;55.94
17072;BME280;7731;50.720;6.912;2022-12-15T10:44:56;99479.47;;;3.26;51.47
17072;BME280;7731;50.720;6.912;2022-12-15T10:47:30;99467.56;;;2.68;53.54
17072;BME280;7731;50.720;6.912;2022-12-15T10:50:20;99487.03;;;2.67;55.79
17072;BME280;7731;50.720;6.912;2022-12-15T10:52:52;99482.84;;;0.88;62.67
17072;BME280;7731;50.720;6.912;2022-12-15T10:55:35;99473.56;;;2.34;59.79
17072;BME280;7731;50.720;6.912;2022-12-15T10:58:18;99464.09;;;4.10;53.66
17072;BME280;7731;50.720;6.912;2022-12-15T11:01:06;99478.88;;;1.18;61.94
17072;BME280;7731;50.720;6.912;2022-12-15T11:03:37;99460.22;;;2.27;59.92
17072;BME280;7731;50.720;6.912;2022-12-15T11:06:16;99458.47;;;1.96;57.53
17072;BME280;7731;50.720;6.912;2022-12-15T11:08:55;99474.41;;;0.87;65.79
17072;BME280;7731;50.720;6.912;2022-12-15T11:11:30;99464.88;;;1.39;63.58
17072;BME280;7731;50.720;6.912;2022-12-15T11:14:17;99456.59;;;1.33;64.61
17072;BME280;7731;50.720;6.912;2022-12-15T11:16:56;99452.94;;;3.34;57.73
17072;BME280;7731;50.720;6.912;2022-12-15T11:19:35;99461.88;;;1.95;59.38
17072;BME280;7731;50.720;6.912;2022-12-15T11:22:16;99453.31;;;2.00;61.74
17072;BME280;7731;50.720;6.912;2022-12-15T11:24:53;99458.53;;;1.93;61.88
17072;BME280;7731;50.720;6.912;2022-12-15T11:27:31;99452.22;;;1.77;62.44
17072;BME280;7731;50.720;6.912;2022-12-15T11:30:12;99449.78;;;2.70;58.29
17072;BME280;7731;50.720;6.912;2022-12-15T11:32:49;99462.78;;;1.93;59.11
17072;BME280;7731;50.720;6.912;2022-12-15T11:35:31;99474.59;;;0.36;67.13
17072;BME280;7731;50.720;6.912;2022-12-15T11:38:15;99457.63;;;1.62;66.59
17072;BME280;7731;50.720;6.912;2022-12-15T11:40:49;99461.41;;;0.64;70.85
17072;BME280;7731;50.720;6.912;2022-12-15T11:43:45;99457.22;;;0.63;72.41
17072;BME280;7731;50.720;6.912;2022-12-15T11:46:30;99455.53;;;1.04;67.61
17072;BME280;7731;50.720;6.912;2022-12-15T11:49:42;99465.53;;;0.69;70.68
17072;BME280;7731;50.720;6.912;2022-12-15T11:52:43;99449.63;;;1.42;67.71
17072;BME280;7731;50.720;6.912;2022-12-15T11:55:25;99446.63;;;-0.55;76.41
17072;BME280;7731;50.720;6.912;2022-12-15T11:58:42;99446.25;;;-0.86;79.31
17072;BME280;7731;50.720;6.912;2022-12-15T12:01:41;99443.31;;;-1.20;83.07
17072;BME280;7731;50.720;6.912;2022-12-15T12:04:42;99432.88;;;-0.35;77.63
17072;BME280;7731;50.720;6.912;2022-12-15T12:07:30;99426.06;;;-0.84;83.50
17072;BME280;7731;50.720;6.912;2022-12-15T12:10:28;99422.06;;;-1.01;86.14
17072;BME280;7731;50.720;6.912;2022-12-15T12:13:10;99424.88;;;-0.09;83.22
17072;BME280;7731;50.720;6.912;2022-12-15T12:15:56;99427.69;;;0.65;74.47
17072;BME280;7731;50.720;6.912;2022-12-15T12:18:33;99416.31;;;-0.03;78.00
17072;BME280;7731;50.720;6.912;2022-12-15T12:21:12;99420.63;;;0.39;76.67
17072;BME280;7731;50.720;6.912;2022-12-15T12:23:50;99417.78;;;0.56;75.18
17072;BME280;7731;50.720;6.912;2022-12-15T12:26:31;99422.56;;;-0.23;78.46
17072;BME280;7731;50.720;6.912;2022-12-15T12:29:14;99416.28;;;-0.02;78.12
17072;BME280;7731;50.720;6.912;2022-12-15T12:31:57;99408.63;;;-0.44;79.24
17072;BME280;7731;50.720;6.912;2022-12-15T12:34:44;99410.75;;;-0.21;82.43
17072;BME280;7731;50.720;6.912;2022-12-15T12:37:50;99410.75;;;-1.36;85.86
17072;BME280;7731;50.720;6.912;2022-12-15T12:40:45;99393.72;;;-1.18;88.65
17072;BME280;7731;50.720;6.912;2022-12-15T12:43:32;99390.81;;;-0.87;85.31
17072;BME280;7731;50.720;6.912;2022-12-15T12:46:11;99390.56;;;-0.21;80.25
17072;BME280;7731;50.720;6.912;2022-12-15T12:48:50;99387.44;;;-0.35;80.68
17072;BME280;7731;50.720;6.912;2022-12-15T12:51:27;99391.94;;;-1.09;86.09
17072;BME280;7731;50.720;6.912;2022-12-15T12:54:02;99386.63;;;-0.90;84.43
17072;BME280;7731;50.720;6.912;2022-12-15T12:56:42;99383.69;;;-0.64;83.63
17072;BME280;7731;50.720;6.912;2022-12-15T12:59:36;99384.53;;;-1.19;87.15
17072;BME280;7731;50.720;6.912;2022-12-15T13:05:29;99380.00;;;-1.59;89.66
17072;BME280;7731;50.720;6.912;2022-12-15T13:08:19;99372.31;;;-1.50;89.40
17072;BME280;7731;50.720;6.912;2022-12-15T13:11:53;99370.16;;;-1.80;90.54
17072;BME280;7731;50.720;6.912;2022-12-15T13:14:45;99359.84;;;-1.59;90.72
17072;BME280;7731;50.720;6.912;2022-12-15T13:17:29;99359.13;;;-1.71;90.56
17072;BME280;7731;50.720;6.912;2022-12-15T13:20:23;99353.63;;;-1.35;88.41
17072;BME280;7731;50.720;6.912;2022-12-15T13:26:18;99357.16;;;-1.47;87.84
17072;BME280;7731;50.720;6.912;2022-12-15T13:28:50;99340.38;;;-1.48;88.08
17072;BME280;7731;50.720;6.912;2022-12-15T13:31:32;99334.47;;;-1.46;88.53
17072;BME280;7731;50.720;6.912;2022-12-15T13:34:16;99332.53;;;-1.90;88.60
17072;BME280;7731;50.720;6.912;2022-12-15T13:36:59;99326.56;;;-1.85;91.28
17072;BME280;7731;50.720;6.912;2022-12-15T13:39:52;99329.38;;;-1.41;89.43
17072;BME280;7731;50.720;6.912;2022-12-15T13:42:37;99318.78;;;-1.66;89.76
17072;BME280;7731;50.720;6.912;2022-12-15T13:45:45;99318.31;;;-1.96;90.52
17072;BME280;7731;50.720;6.912;2022-12-15T13:48:27;99308.94;;;-1.86;90.91
17072;BME280;7731;50.720;6.912;2022-12-15T13:51:17;99317.72;;;-1.50;88.12
17072;BME280;7731;50.720;6.912;2022-12-15T13:53:56;99308.34;;;-2.05;92.07
17072;BME280;7731;50.720;6.912;2022-12-15T13:56:56;99309.06;;;-1.95;91.63
17072;BME280;7731;50.720;6.912;2022-12-15T13:59:48;99318.56;;;-2.18;91.10
17072;BME280;7731;50.720;6.912;2022-12-15T14:02:26;99316.41;;;-1.78;91.34
17072;BME280;7731;50.720;6.912;2022-12-15T14:05:13;99312.56;;;-2.06;93.03
17072;BME280;7731;50.720;6.912;2022-12-15T14:07:49;99302.53;;;-2.12;92.68
17072;BME280;7731;50.720;6.912;2022-12-15T14:10:36;99300.88;;;-2.11;92.96
17072;BME280;7731;50.720;6.912;2022-12-15T14:13:12;99283.63;;;-1.74;91.76
17072;BME280;7731;50.720;6.912;2022-12-15T14:15:53;99279.84;;;-2.06;90.34